Time;durP1;ratioP1;P1;durP2;ratioP2;P2;SDS_P1;SDS_P2;PMS_P1;PMS_P2;Temp;Humidity;BMP_temperature;BMP_pressure;BME280_temperature;BME280_humidity;BME280_pressure;Samples;Min_cycle;Max_cycle;Signal;HPM_P1;HPM_P2
2021/07/25 00:02:25;;;;;;;43.97;33.25;;;;;;;20.02;83.64;100799.47;4793107;29;20055;-38
2021/07/25 00:04:53;;;;;;;;;;;;;;;20.00;83.70;100798.88;4795232;29;20073;-38
2021/07/25 00:07:20;;;;;;;44.53;33.50;;;;;;;20.04;83.96;100793.97;4789906;29;20008;-39
2021/07/25 00:09:46;;;;;;;47.40;34.70;;;;;;;20.02;83.67;100783.50;4793487;29;20111;-39
2021/07/25 00:12:13;;;;;;;48.47;33.83;;;;;;;20.06;83.36;100778.59;4793734;29;20154;-39
2021/07/25 00:14:39;;;;;;;50.72;33.85;;;;;;;20.03;83.56;100774.50;4794337;29;20141;-39
2021/07/25 00:17:06;;;;;;;45.65;34.22;;;;;;;19.99;84.13;100770.59;4791679;29;20606;-39
2021/07/25 00:19:35;;;;;;;51.00;33.60;;;;;;;19.98;83.89;100774.31;4797482;29;20057;-39
2021/07/25 00:22:06;;;;;;;47.20;32.92;;;;;;;19.96;83.63;100768.38;4783401;29;20086;-38
2021/07/25 00:24:35;;;;;;;50.33;36.50;;;;;;;19.90;84.18;100766.56;4795292;29;20064;-38
2021/07/25 00:27:03;;;;;;;45.67;34.90;;;;;;;19.90;84.44;100766.56;4777924;29;20077;-39
2021/07/25 00:29:31;;;;;;;45.70;34.20;;;;;;;19.89;84.27;100762.25;4793149;29;20142;-39
2021/07/25 00:32:02;;;;;;;43.13;33.67;;;;;;;19.87;84.04;100754.47;4790310;29;20133;-39
2021/07/25 00:34:30;;;;;;;40.50;31.90;;;;;;;19.88;83.84;100749.97;4787457;29;20058;-39
2021/07/25 00:36:57;;;;;;;44.92;33.72;;;;;;;19.85;84.67;100750.38;4792986;29;20488;-39
2021/07/25 00:39:24;;;;;;;44.25;32.53;;;;;;;19.81;84.80;100749.97;4797577;29;20066;-39
2021/07/25 00:41:50;;;;;;;45.67;33.75;;;;;;;19.74;85.42;100752.69;4793181;29;20055;-39
2021/07/25 00:44:18;;;;;;;43.25;34.15;;;;;;;19.72;85.54;100752.06;4792561;29;20098;-39
2021/07/25 00:46:56;;;;;;;45.10;32.90;;;;;;;19.73;84.94;100755.53;4798601;29;20138;-39
2021/07/25 00:49:23;;;;;;;46.00;32.63;;;;;;;19.73;84.87;100752.88;4800967;29;20059;-39
2021/07/25 00:51:50;;;;;;;49.50;32.63;;;;;;;19.73;84.60;100753.69;4796346;29;20061;-39
2021/07/25 00:54:16;;;;;;;49.10;35.30;;;;;;;19.67;85.02;100749.16;4798849;29;20466;-38
2021/07/25 00:56:43;;;;;;;42.80;32.50;;;;;;;19.69;84.94;100749.78;4784916;29;20097;-38
2021/07/25 00:59:10;;;;;;;45.72;31.60;;;;;;;19.63;85.21;100742.63;4797821;29;20149;-38
2021/07/25 01:01:36;;;;;;;44.25;32.30;;;;;;;19.64;85.53;100738.13;4790411;29;20554;-39
2021/07/25 01:04:40;;;;;;;45.10;32.25;;;;;;;19.61;85.45;100738.56;4799893;29;20055;-39
2021/07/25 01:07:34;;;;;;;45.33;32.17;;;;;;;19.60;85.32;100724.44;4790046;29;20115;-39
2021/07/25 01:10:05;;;;;;;44.92;32.70;;;;;;;19.62;85.41;100725.03;4798995;29;20133;-39
2021/07/25 01:12:38;;;;;;;41.22;32.58;;;;;;;19.61;85.41;100715.41;4812503;29;20145;-39
2021/07/25 01:15:05;;;;;;;47.47;32.35;;;;;;;19.58;85.50;100712.34;4809878;29;20130;-39
2021/07/25 01:17:34;;;;;;;45.95;31.67;;;;;;;19.60;84.91;100711.13;4799661;29;20093;-39
2021/07/25 01:20:05;;;;;;;;;;;;;;;19.61;84.93;100709.28;4799989;29;20062;-39
2021/07/25 01:22:35;;;;;;;40.33;29.45;;;;;;;19.56;85.20;100710.72;4811238;29;19972;-39
2021/07/25 01:25:04;;;;;;;40.47;30.13;;;;;;;19.56;85.44;100709.91;4796926;29;20512;-39
2021/07/25 01:27:38;;;;;;;43.40;31.65;;;;;;;19.53;85.81;100715.66;4805464;29;20185;-38
2021/07/25 01:30:08;;;;;;;45.45;31.70;;;;;;;19.43;86.93;100708.09;4786954;29;20582;-39
2021/07/25 01:32:35;;;;;;;44.90;32.35;;;;;;;19.44;86.75;100712.38;4789192;29;20055;-39
2021/07/25 01:35:03;;;;;;;46.37;32.67;;;;;;;19.43;87.15;100712.59;4801093;29;20157;-39
2021/07/25 01:37:31;;;;;;;42.88;30.80;;;;;;;19.45;86.74;100721.19;4794733;29;20141;-39
2021/07/25 01:39:58;;;;;;;49.40;35.85;;;;;;;19.42;87.25;100713.63;4807990;29;20090;-39
2021/07/25 01:42:28;;;;;;;37.38;27.17;;;;;;;19.47;86.29;100713.81;4787659;29;20142;-39
2021/07/25 01:44:55;;;;;;;48.08;35.30;;;;;;;19.36;87.88;100721.38;4796300;29;20436;-39
2021/07/25 01:47:21;;;;;;;46.85;32.67;;;;;;;19.36;87.48;100723.22;4793001;29;20163;-39
2021/07/25 01:49:48;;;;;;;50.03;34.33;;;;;;;19.33;87.91;100727.13;4788396;29;20146;-39
2021/07/25 01:52:14;;;;;;;47.70;34.67;;;;;;;19.33;88.17;100734.31;4799073;29;20141;-39
2021/07/25 01:54:42;;;;;;;43.08;33.70;;;;;;;19.30;88.25;100732.84;4800210;29;20130;-39
2021/07/25 01:57:08;;;;;;;46.45;35.42;;;;;;;19.26;88.59;100731.63;4799938;29;20068;-39
2021/07/25 01:59:35;;;;;;;46.53;34.20;;;;;;;19.23;89.01;100728.56;4793824;29;20146;-39
2021/07/25 02:02:01;;;;;;;50.78;34.20;;;;;;;19.26;88.57;100722.84;4807338;29;20141;-39
2021/07/25 02:04:28;;;;;;;43.97;32.47;;;;;;;19.20;89.24;100721.81;4790322;29;20136;-39
2021/07/25 02:06:54;;;;;;;48.60;34.28;;;;;;;19.25;88.78;100730.00;4799779;29;20591;-39
2021/07/25 02:09:21;;;;;;;44.05;33.83;;;;;;;19.20;89.70;100734.31;4793539;29;20141;-39
2021/07/25 02:11:47;;;;;;;46.28;34.13;;;;;;;19.24;89.22;100731.03;4797862;29;20165;-39
2021/07/25 02:14:14;;;;;;;48.78;33.13;;;;;;;19.23;89.24;100721.41;4799491;29;20139;-39
2021/07/25 02:16:41;;;;;;;43.50;32.13;;;;;;;19.27;88.69;100721.84;4802297;29;20054;-39
2021/07/25 02:19:07;;;;;;;50.85;34.70;;;;;;;19.26;89.06;100715.69;4795276;29;20564;-39
2021/07/25 02:21:34;;;;;;;48.30;33.95;;;;;;;19.27;88.60;100714.66;4790701;29;20536;-39
2021/07/25 02:24:06;;;;;;;43.50;34.25;;;;;;;19.26;89.05;100717.53;4797751;29;20407;-39
2021/07/25 02:26:32;;;;;;;44.47;33.22;;;;;;;19.26;88.94;100725.50;4804241;29;20094;-39
2021/07/25 02:28:59;;;;;;;45.97;32.53;;;;;;;19.27;88.76;100719.19;4755407;29;1083791;-38
2021/07/25 02:31:26;;;;;;;51.78;33.40;;;;;;;19.28;88.40;100720.78;4777295;29;20484;-39
2021/07/25 02:33:52;;;;;;;46.97;33.67;;;;;;;19.23;88.49;100718.75;4792942;29;20059;-39
2021/07/25 02:36:19;;;;;;;46.63;33.35;;;;;;;19.23;88.71;100724.09;4791568;29;20054;-39
2021/07/25 02:38:45;;;;;;;47.88;34.05;;;;;;;19.23;88.71;100715.25;4784377;29;20141;-39
2021/07/25 02:41:11;;;;;;;48.15;34.50;;;;;;;19.21;89.33;100715.50;4789851;29;20590;-40
2021/07/25 02:43:38;;;;;;;51.42;35.33;;;;;;;19.13;89.38;100718.34;4782820;29;20442;-39
2021/07/25 02:46:04;;;;;;;47.28;35.33;;;;;;;19.09;90.00;100711.81;4784732;29;20086;-39
2021/07/25 02:48:31;;;;;;;46.00;34.08;;;;;;;19.02;90.38;100714.47;4787670;29;20070;-39
2021/07/25 02:50:58;;;;;;;45.60;33.72;;;;;;;18.98;90.93;100710.59;4786537;29;20094;-40
2021/07/25 02:53:26;;;;;;;45.55;33.55;;;;;;;18.92;90.90;100712.22;4791537;29;20083;-39
2021/07/25 02:55:53;;;;;;;47.47;35.60;;;;;;;18.89;91.22;100704.66;4782419;29;20070;-39
2021/07/25 02:58:20;;;;;;;46.55;34.22;;;;;;;18.88;91.49;100707.53;4783588;29;20145;-39
2021/07/25 03:00:47;;;;;;;44.22;30.63;;;;;;;18.87;90.13;100704.03;4782477;29;20051;-39
2021/07/25 03:03:13;;;;;;;44.70;30.33;;;;;;;18.91;89.89;100715.06;4803989;29;20055;-39
2021/07/25 03:05:41;;;;;;;44.38;32.00;;;;;;;18.87;89.97;100708.53;4784970;29;20058;-39
2021/07/25 03:08:07;;;;;;;45.35;32.78;;;;;;;18.88;89.63;100707.53;4789367;29;20150;-39
2021/07/25 03:10:34;;;;;;;43.10;31.40;;;;;;;18.88;89.96;100699.56;4788783;29;20137;-39
2021/07/25 03:13:00;;;;;;;42.08;31.27;;;;;;;18.88;89.49;100710.19;4777125;29;20172;-39
2021/07/25 03:15:27;;;;;;;44.00;30.33;;;;;;;18.87;89.69;100701.38;4789807;29;20153;-39
2021/07/25 03:17:53;;;;;;;40.13;30.70;;;;;;;18.89;88.52;100704.66;4781641;29;20062;-39
2021/07/25 03:20:20;;;;;;;42.95;32.05;;;;;;;18.87;89.17;100708.53;4788342;29;20087;-39
2021/07/25 03:22:46;;;;;;;44.55;30.70;;;;;;;18.85;88.60;100699.94;4782799;29;20145;-39
2021/07/25 03:25:13;;;;;;;42.90;31.30;;;;;;;18.85;88.78;100706.06;4793517;29;20153;-39
2021/07/25 03:27:40;;;;;;;40.75;30.65;;;;;;;18.83;88.85;100697.50;4806061;29;20119;-39
2021/07/25 03:30:07;;;;;;;42.15;31.27;;;;;;;18.87;89.10;100698.72;4790350;29;20156;-39
2021/07/25 03:32:34;;;;;;;42.42;31.08;;;;;;;18.86;88.42;100693.63;4787814;29;20139;-39
2021/07/25 03:35:01;;;;;;;39.67;30.67;;;;;;;18.83;88.55;100696.69;4786127;29;20157;-39
2021/07/25 03:37:27;;;;;;;41.80;30.88;;;;;;;18.80;88.70;100697.06;4783877;29;20149;-39
2021/07/25 03:39:55;;;;;;;44.08;30.65;;;;;;;18.77;89.08;100699.09;4781922;29;20477;-39
2021/07/25 03:42:21;;;;;;;42.80;31.65;;;;;;;18.69;90.33;100696.63;4786472;29;20162;-39
2021/07/25 03:44:49;;;;;;;42.30;31.67;;;;;;;18.70;90.20;100702.75;4790558;29;20055;-39
2021/07/25 03:47:15;;;;;;;39.42;29.80;;;;;;;18.67;90.25;100705.84;4783175;29;20150;-39
2021/07/25 03:49:43;;;;;;;43.05;30.88;;;;;;;18.60;90.63;100702.34;4788291;29;20151;-39
2021/07/25 03:52:10;;;;;;;44.13;31.10;;;;;;;18.61;90.84;100709.31;4777375;29;20157;-39
2021/07/25 03:54:38;;;;;;;42.95;29.55;;;;;;;18.65;90.02;100711.34;4785062;29;20174;-39
2021/07/25 03:57:05;;;;;;;;;;;;;;;18.68;89.92;100715.44;4792316;29;20252;-39
2021/07/25 03:59:31;;;;;;;37.72;29.13;;;;;;;18.68;89.71;100702.97;4786973;29;19935;-39
2021/07/25 04:01:58;;;;;;;45.50;31.20;;;;;;;18.63;89.91;100723.19;4796034;29;20059;-39
2021/07/25 04:04:25;;;;;;;42.53;29.33;;;;;;;18.60;89.45;100703.16;4788212;29;20055;-39
2021/07/25 04:06:51;;;;;;;38.97;29.27;;;;;;;18.54;89.89;100712.78;4784455;29;20600;-39
2021/07/25 04:09:18;;;;;;;41.20;28.45;;;;;;;18.53;89.90;100711.13;4786360;29;20111;-39
2021/07/25 04:11:48;;;;;;;40.75;28.90;;;;;;;18.50;89.30;100705.38;4786308;29;20098;-39
2021/07/25 04:14:15;;;;;;;43.17;29.40;;;;;;;18.46;89.53;100707.63;4783263;29;20149;-39
2021/07/25 04:16:41;;;;;;;38.67;28.55;;;;;;;18.46;89.51;100704.97;4785894;29;20055;-39
2021/07/25 04:19:08;;;;;;;36.45;28.05;;;;;;;18.43;89.33;100710.69;4775966;29;20558;-39
2021/07/25 04:21:34;;;;;;;41.33;29.00;;;;;;;18.39;89.93;100704.16;4783757;29;20138;-39
2021/07/25 04:24:01;;;;;;;32.83;25.52;;;;;;;18.40;89.29;100705.78;4793005;29;20129;-39
2021/07/25 04:26:27;;;;;;;39.67;29.13;;;;;;;18.44;89.64;100714.16;4800912;29;20089;-39
2021/07/25 04:28:54;;;;;;;44.50;30.40;;;;;;;18.43;89.37;100704.56;4798426;29;20066;-39
2021/07/25 04:31:21;;;;;;;36.15;27.65;;;;;;;18.43;89.45;100708.03;4780464;29;20170;-39
2021/07/25 04:33:52;;;;;;;35.80;26.95;;;;;;;18.44;89.23;100706.19;4783348;29;20531;-39
2021/07/25 04:36:26;;;;;;;41.97;29.20;;;;;;;18.49;89.84;100701.91;4784848;29;20157;-39
2021/07/25 04:38:57;;;;;;;38.92;27.70;;;;;;;18.53;89.55;100711.13;4786250;29;20094;-39
2021/07/25 04:41:26;;;;;;;39.15;28.10;;;;;;;18.55;89.50;100702.97;4789829;29;20130;-39
2021/07/25 04:44:07;;;;;;;39.03;27.38;;;;;;;18.57;89.65;100717.66;4781701;29;20105;-39
2021/07/25 04:46:34;;;;;;;38.05;27.88;;;;;;;18.65;89.76;100718.50;4785365;29;20073;-39
2021/07/25 04:49:12;;;;;;;41.80;29.15;;;;;;;18.71;90.00;100713.19;4781193;29;20500;-39
2021/07/25 04:51:40;;;;;;;40.90;30.02;;;;;;;18.75;90.16;100722.38;4789030;29;20146;-39
2021/07/25 04:54:08;;;;;;;;;;;;;;;18.73;90.04;100729.75;4780723;29;20146;-38
2021/07/25 04:56:59;;;;;;;35.63;27.23;;;;;;;18.78;90.11;100723.84;4788141;29;19972;-39
2021/07/25 04:59:27;;;;;;;36.30;26.60;;;;;;;18.83;89.33;100729.38;4775485;29;20146;-39
2021/07/25 05:01:59;;;;;;;41.75;27.60;;;;;;;18.83;88.94;100732.03;4787704;29;20090;-39
2021/07/25 05:04:30;;;;;;;36.08;26.05;;;;;;;18.88;88.89;100734.91;4784171;29;20178;-39
2021/07/25 05:06:57;;;;;;;36.25;25.83;;;;;;;18.83;88.81;100739.19;4789293;29;20141;-39
2021/07/25 05:09:25;;;;;;;33.58;25.50;;;;;;;18.85;88.58;100737.97;4791572;29;21030;-39
2021/07/25 05:12:01;;;;;;;34.65;25.80;;;;;;;18.85;88.76;100739.81;4777174;29;20055;-39
2021/07/25 05:14:36;;;;;;;35.17;24.60;;;;;;;18.86;88.25;100738.81;4783052;29;20047;-38
2021/07/25 05:17:09;;;;;;;31.38;23.50;;;;;;;18.85;87.95;100745.94;4781527;29;20065;-39
2021/07/25 05:19:43;;;;;;;33.58;23.65;;;;;;;18.83;87.91;100742.66;4790882;29;20527;-39
2021/07/25 05:22:37;;;;;;;30.02;22.92;;;;;;;18.87;87.42;100743.09;4783558;29;20537;-39
2021/07/25 05:25:05;;;;;;;30.88;21.40;;;;;;;18.86;86.99;100744.13;4795239;29;20134;-39
2021/07/25 05:27:44;;;;;;;31.77;21.83;;;;;;;18.90;86.89;100746.16;4787549;29;20564;-39
2021/07/25 05:30:11;;;;;;;;;;;;;;;18.98;86.94;100749.66;4794678;29;20950;-39
2021/07/25 05:32:38;;;;;;;27.92;20.17;;;;;;;19.01;86.56;100752.69;4779945;29;19929;-39
2021/07/25 05:35:05;;;;;;;26.98;19.90;;;;;;;18.99;86.74;100751.28;4789397;29;20055;-39
2021/07/25 05:37:31;;;;;;;26.45;18.40;;;;;;;19.00;86.09;100752.91;4785798;29;20112;-39
2021/07/25 05:39:58;;;;;;;23.35;18.20;;;;;;;19.01;85.99;100760.66;4783842;29;20147;-38
2021/07/25 05:42:24;;;;;;;23.17;16.75;;;;;;;18.94;84.72;100758.03;4783222;29;20141;-39
2021/07/25 05:44:51;;;;;;;25.85;15.15;;;;;;;18.93;84.53;100752.91;4787092;29;20059;-39
2021/07/25 05:47:18;;;;;;;21.60;16.60;;;;;;;19.06;85.08;100750.25;4790009;29;20098;-40
2021/07/25 05:49:44;;;;;;;22.95;14.98;;;;;;;19.19;84.90;100745.94;4785355;29;20058;-39
2021/07/25 05:52:10;;;;;;;21.10;14.52;;;;;;;19.26;83.88;100747.59;4790159;29;20097;-39
2021/07/25 05:54:37;;;;;;;23.88;15.98;;;;;;;19.37;83.28;100746.16;4784637;29;20134;-39
2021/07/25 05:57:04;;;;;;;18.23;12.82;;;;;;;19.45;82.90;100753.13;4794415;29;20105;-39
2021/07/25 05:59:30;;;;;;;22.05;15.27;;;;;;;19.49;82.96;100759.66;4788787;29;20138;-39
2021/07/25 06:02:02;;;;;;;21.38;14.40;;;;;;;19.51;81.77;100749.63;4788392;29;20050;-39
2021/07/25 06:04:29;;;;;;;22.75;14.23;;;;;;;19.47;81.67;100751.88;4793203;29;20409;-39
2021/07/25 06:06:56;;;;;;;16.27;11.90;;;;;;;19.62;81.31;100748.16;4780744;29;20914;-39
2021/07/25 06:09:24;;;;;;;16.80;12.55;;;;;;;19.69;81.05;100748.97;4789568;29;20142;-39
2021/07/25 06:11:51;;;;;;;18.80;12.63;;;;;;;19.68;80.63;100752.63;4789136;29;20120;-39
2021/07/25 06:14:18;;;;;;;19.60;12.50;;;;;;;19.78;80.86;100744.25;4786191;29;20343;-39
2021/07/25 06:16:44;;;;;;;20.40;13.35;;;;;;;19.84;80.51;100741.59;4791109;29;20141;-39
2021/07/25 06:19:11;;;;;;;17.15;12.13;;;;;;;19.94;80.29;100749.13;4785441;29;20074;-39
2021/07/25 06:21:37;;;;;;;16.83;11.88;;;;;;;19.93;80.01;100742.16;4781582;29;20098;-39
2021/07/25 06:24:04;;;;;;;16.85;11.88;;;;;;;20.09;79.49;100747.03;4788998;29;20141;-40
2021/07/25 06:26:32;;;;;;;18.15;12.27;;;;;;;20.12;78.96;100748.44;4809068;29;20138;-39
2021/07/25 06:28:59;;;;;;;16.73;11.43;;;;;;;20.22;78.71;100748.00;4788658;29;20051;-39
2021/07/25 06:31:26;;;;;;;17.13;11.80;;;;;;;20.32;79.12;100740.38;4791875;29;20090;-40
2021/07/25 06:33:52;;;;;;;16.50;11.35;;;;;;;20.37;78.25;100751.22;4785254;29;20051;-40
2021/07/25 06:36:19;;;;;;;14.55;11.02;;;;;;;20.42;77.92;100743.38;4783799;29;20055;-39
2021/07/25 06:38:46;;;;;;;17.30;11.83;;;;;;;20.43;77.17;100738.88;4790369;29;20087;-39
2021/07/25 06:41:12;;;;;;;17.42;11.85;;;;;;;20.43;77.45;100746.88;4787231;29;20255;-39
2021/07/25 06:43:39;;;;;;;14.77;10.32;;;;;;;20.44;78.23;100743.16;4796288;29;20507;-38
2021/07/25 06:46:09;;;;;;;15.52;10.95;;;;;;;20.43;77.38;100745.03;4791741;29;20837;-38
2021/07/25 06:48:35;;;;;;;16.90;10.60;;;;;;;20.31;76.90;100749.41;4803368;29;20459;-37
2021/07/25 06:51:03;;;;;;;15.57;10.40;;;;;;;20.35;77.79;100746.09;4804558;29;20511;-38
2021/07/25 06:53:31;;;;;;;17.60;10.05;;;;;;;20.37;77.70;100748.56;4794346;29;20103;-38
2021/07/25 06:56:03;;;;;;;15.25;11.25;;;;;;;20.43;77.36;100745.03;4798527;29;20047;-38
2021/07/25 06:58:31;;;;;;;17.05;10.23;;;;;;;20.47;76.64;100742.75;4792930;29;20058;-38
2021/07/25 07:00:57;;;;;;;16.98;10.38;;;;;;;20.46;76.67;100747.25;4795896;29;20114;-37
2021/07/25 07:03:24;;;;;;;16.85;10.10;;;;;;;20.46;76.75;100749.09;4799384;29;20111;-38
2021/07/25 07:05:50;;;;;;;18.45;10.20;;;;;;;20.46;76.51;100749.09;4803060;29;20134;-38
2021/07/25 07:08:20;;;;;;;17.25;10.07;;;;;;;20.45;76.58;100753.63;4805169;29;20145;-38
2021/07/25 07:10:47;;;;;;;16.48;9.68;;;;;;;20.45;76.12;100745.63;4790779;29;20553;-38
2021/07/25 07:13:15;;;;;;;12.90;8.68;;;;;;;20.61;76.41;100747.00;4788478;29;20537;-38
2021/07/25 07:15:44;;;;;;;14.63;9.10;;;;;;;20.70;75.95;100748.38;4780743;29;20054;-38
2021/07/25 07:18:11;;;;;;;14.70;8.70;;;;;;;20.71;75.41;100743.88;4786617;29;20154;-38
2021/07/25 07:20:38;;;;;;;18.13;9.10;;;;;;;20.77;75.40;100747.53;4787573;29;20057;-38
2021/07/25 07:23:08;;;;;;;14.15;8.63;;;;;;;20.88;74.89;100749.50;4800585;29;20577;-38
2021/07/25 07:25:36;;;;;;;13.25;9.48;;;;;;;20.84;74.60;100754.44;4797445;29;20881;-37
2021/07/25 07:28:04;;;;;;;13.43;9.43;;;;;;;20.85;74.54;100752.59;4800855;29;20056;-38
2021/07/25 07:30:31;;;;;;;14.68;9.30;;;;;;;20.97;75.36;100747.38;4798754;29;20105;-38
2021/07/25 07:33:11;;;;;;;10.90;8.07;;;;;;;21.00;74.96;100753.09;4787225;29;20149;-37
2021/07/25 07:35:38;;;;;;;13.48;8.23;;;;;;;20.99;74.33;100753.31;4792982;29;20299;-38
2021/07/25 07:38:23;;;;;;;13.23;8.57;;;;;;;21.09;73.85;100756.28;4790979;29;20169;-38
2021/07/25 07:40:50;;;;;;;11.38;8.38;;;;;;;21.08;73.18;100755.47;4798014;29;20145;-37
2021/07/25 07:43:18;;;;;;;15.40;8.50;;;;;;;21.15;72.47;100760.78;4800488;29;20149;-37
2021/07/25 07:45:44;;;;;;;13.68;8.77;;;;;;;21.20;72.24;100750.25;4789140;29;20059;-37
2021/07/25 07:48:11;;;;;;;15.50;9.02;;;;;;;21.29;72.77;100756.97;4798196;29;20071;-37
2021/07/25 07:50:38;;;;;;;12.73;7.85;;;;;;;21.37;72.96;100763.06;4787762;29;20133;-37
2021/07/25 07:53:04;;;;;;;13.63;8.45;;;;;;;21.41;72.12;100766.91;4784928;29;20132;-37
2021/07/25 07:55:31;;;;;;;12.75;8.48;;;;;;;21.31;70.69;100762.09;4783512;29;20555;-37
2021/07/25 07:57:57;;;;;;;12.43;7.95;;;;;;;21.33;70.05;100762.69;4787355;29;20759;-37
2021/07/25 08:00:24;;;;;;;11.00;7.40;;;;;;;21.45;70.94;100762.81;4785936;29;20063;-37
2021/07/25 08:02:50;;;;;;;14.55;7.45;;;;;;;21.48;70.07;100773.03;4789950;29;20901;-37
2021/07/25 08:05:18;;;;;;;11.60;8.07;;;;;;;21.41;70.08;100762.38;4783090;29;20082;-37
2021/07/25 08:07:45;;;;;;;13.07;8.30;;;;;;;21.47;69.92;100769.53;4783928;29;20143;-37
2021/07/25 08:10:12;;;;;;;11.27;7.13;;;;;;;21.53;70.54;100765.19;4790992;29;20097;-37
2021/07/25 08:12:39;;;;;;;12.57;7.00;;;;;;;21.61;69.94;100769.41;4793574;29;20086;-37
2021/07/25 08:15:07;;;;;;;12.82;8.48;;;;;;;21.52;69.75;100771.53;4804051;29;20174;-37
2021/07/25 08:17:33;;;;;;;11.80;7.03;;;;;;;21.61;69.97;100769.41;4801899;29;20157;-37
2021/07/25 08:20:00;;;;;;;12.27;7.15;;;;;;;21.69;69.76;100769.94;4792409;29;20059;-37
2021/07/25 08:22:26;;;;;;;12.27;7.80;;;;;;;21.73;69.52;100775.66;4788993;29;20059;-37
2021/07/25 08:24:53;;;;;;;15.70;7.93;;;;;;;21.76;69.15;100780.56;4794467;29;20138;-37
2021/07/25 08:27:19;;;;;;;9.95;7.28;;;;;;;21.92;69.60;100771.16;4809185;29;20526;-37
2021/07/25 08:29:46;;;;;;;11.13;7.13;;;;;;;22.08;69.37;100777.75;4797934;29;20061;-37
2021/07/25 08:32:13;;;;;;;14.60;7.35;;;;;;;22.29;68.81;100782.66;4796603;29;20161;-37
2021/07/25 08:34:39;;;;;;;10.75;6.53;;;;;;;22.51;67.59;100784.84;4787459;29;20094;-37
2021/07/25 08:37:06;;;;;;;11.80;7.70;;;;;;;22.62;66.77;100776.06;4794969;29;20885;-37
2021/07/25 08:39:33;;;;;;;12.00;7.32;;;;;;;23.15;67.09;100785.16;4795515;29;20165;-37
2021/07/25 08:42:04;;;;;;;12.30;7.95;;;;;;;23.26;64.20;100784.34;4798102;29;20218;-37
2021/07/25 08:44:43;;;;;;;14.05;8.00;;;;;;;23.56;63.90;100783.44;4794263;29;20848;-37
2021/07/25 08:47:42;;;;;;;12.60;7.80;;;;;;;23.84;62.37;100777.38;4782589;29;20058;-37
2021/07/25 08:50:27;;;;;;;8.30;6.20;;;;;;;24.38;61.21;100777.09;4793909;29;20173;-37
2021/07/25 08:52:54;;;;;;;12.63;7.45;;;;;;;24.81;60.73;100777.63;4798489;29;20145;-37
2021/07/25 08:55:22;;;;;;;12.47;7.83;;;;;;;25.22;58.41;100781.00;4795201;29;20082;-37
2021/07/25 08:57:51;;;;;;;10.00;6.40;;;;;;;25.60;58.59;100785.59;4794940;29;20153;-38
2021/07/25 09:00:20;;;;;;;12.30;8.20;;;;;;;25.96;56.68;100774.53;4790466;29;20137;-37
2021/07/25 09:02:50;;;;;;;13.23;8.73;;;;;;;26.15;56.21;100778.53;4781135;29;20097;-38
2021/07/25 09:05:17;;;;;;;11.68;8.40;;;;;;;26.43;55.54;100777.47;4802645;29;20540;-37
2021/07/25 09:07:48;;;;;;;13.05;8.85;;;;;;;26.43;54.21;100777.47;4783333;29;20110;-37
2021/07/25 09:10:20;;;;;;;12.55;8.73;;;;;;;26.66;54.31;100786.34;4798806;29;20196;-37
2021/07/25 09:12:49;;;;;;;11.02;8.55;;;;;;;26.91;54.65;100780.38;4792941;29;20137;-37
2021/07/25 09:15:19;;;;;;;12.00;8.60;;;;;;;27.21;53.65;100785.19;4791353;29;20098;-37
2021/07/25 09:17:53;;;;;;;12.80;9.60;;;;;;;27.16;51.26;100785.13;4796417;29;20082;-37
2021/07/25 09:20:26;;;;;;;11.95;8.57;;;;;;;27.16;51.23;100774.38;4793752;29;20093;-37
2021/07/25 09:22:52;;;;;;;11.35;7.88;;;;;;;27.14;51.96;100771.13;4795623;29;20533;-37
2021/07/25 09:25:21;;;;;;;12.15;7.68;;;;;;;27.21;52.55;100774.41;4799287;29;20085;-37
2021/07/25 09:27:56;;;;;;;12.77;8.05;;;;;;;27.59;52.70;100771.72;4804621;29;20820;-37
2021/07/25 09:30:33;;;;;;;13.57;8.75;;;;;;;27.15;51.99;100782.72;4798778;29;20094;-37
2021/07/25 09:33:00;;;;;;;10.52;8.50;;;;;;;26.70;52.28;100775.88;4803347;29;20484;-37
2021/07/25 09:35:32;;;;;;;12.93;9.20;;;;;;;26.97;51.85;100778.53;4800247;29;20522;-37
2021/07/25 09:38:01;;;;;;;11.95;8.57;;;;;;;26.92;52.88;100776.63;4790101;29;20177;-37
2021/07/25 09:40:30;;;;;;;14.35;8.32;;;;;;;27.24;51.82;100781.19;4797804;29;20142;-37
2021/07/25 09:43:12;;;;;;;9.38;6.65;;;;;;;27.35;49.79;100780.19;4787271;29;20058;-37
2021/07/25 09:46:01;;;;;;;11.48;8.18;;;;;;;27.58;49.32;100776.31;4788471;29;20055;-38
2021/07/25 09:48:30;;;;;;;11.73;7.18;;;;;;;27.94;49.88;100778.38;4785576;29;20149;-37
2021/07/25 09:51:00;;;;;;;8.15;5.43;;;;;;;28.21;48.12;100770.13;4798102;29;20059;-37
2021/07/25 09:53:44;;;;;;;10.48;6.63;;;;;;;28.40;47.56;100773.94;4795001;29;20065;-38
2021/07/25 09:56:15;;;;;;;11.95;7.43;;;;;;;28.17;46.16;100777.13;4792407;29;20817;-37
2021/07/25 09:58:44;;;;;;;12.77;8.77;;;;;;;28.13;47.50;100771.44;4786460;29;20146;-38
2021/07/25 10:01:31;;;;;;;11.43;7.68;;;;;;;28.05;47.43;100771.13;4787463;29;20515;-37
2021/07/25 10:04:10;;;;;;;13.77;8.43;;;;;;;28.39;47.70;100771.50;4795404;29;20055;-38
2021/07/25 10:06:41;;;;;;;18.98;8.55;;;;;;;28.45;46.79;100773.13;4788785;29;20070;-36
2021/07/25 10:09:09;;;;;;;11.68;8.85;;;;;;;27.73;47.78;100772.84;4798515;29;20062;-37
2021/07/25 10:11:39;;;;;;;11.77;8.20;;;;;;;28.06;47.81;100776.25;4782539;29;20062;-39
2021/07/25 10:14:05;;;;;;;12.88;9.00;;;;;;;28.30;48.05;100776.59;4799848;29;20094;-39
2021/07/25 10:16:32;;;;;;;18.30;10.55;;;;;;;27.77;48.09;100775.84;4792278;29;20050;-38
2021/07/25 10:19:02;;;;;;;13.25;8.57;;;;;;;27.78;47.69;100775.59;4802690;29;20150;-36
2021/07/25 10:21:31;;;;;;;13.18;8.40;;;;;;;27.76;48.54;100775.03;4790287;29;20146;-36
2021/07/25 10:23:59;;;;;;;12.63;8.32;;;;;;;27.96;48.67;100766.25;4796277;29;20118;-40
2021/07/25 10:26:27;;;;;;;15.73;8.93;;;;;;;28.09;48.07;100770.34;4798121;29;20158;-37
2021/07/25 10:28:55;;;;;;;13.85;8.98;;;;;;;28.11;47.22;100768.22;4792663;29;20069;-38
2021/07/25 10:31:24;;;;;;;11.32;9.05;;;;;;;28.32;48.38;100769.03;4801465;29;20586;-38
2021/07/25 10:33:52;;;;;;;13.88;9.50;;;;;;;28.39;46.31;100766.91;4785939;29;20055;-37
2021/07/25 10:36:20;;;;;;;13.43;9.27;;;;;;;28.34;46.90;100774.97;4786500;29;20154;-38
2021/07/25 10:38:47;;;;;;;14.20;7.68;;;;;;;28.80;47.23;100774.28;4790591;29;20142;-38
2021/07/25 10:41:32;;;;;;;14.27;8.85;;;;;;;29.21;45.39;100773.47;4789947;29;20087;-38
2021/07/25 10:44:01;;;;;;;13.00;7.78;;;;;;;29.24;45.81;100771.03;4783897;29;20070;-38
2021/07/25 10:46:29;;;;;;;12.30;7.22;;;;;;;29.21;46.33;100768.88;4791434;29;20054;-38
2021/07/25 10:49:03;;;;;;;11.77;7.82;;;;;;;29.04;45.18;100773.75;4788321;29;20062;-38
2021/07/25 10:51:30;;;;;;;12.95;8.23;;;;;;;28.76;44.99;100767.81;4783885;29;20786;-37
2021/07/25 10:54:21;;;;;;;17.17;8.13;;;;;;;29.31;46.29;100768.06;4791674;29;20075;-37
2021/07/25 10:57:03;;;;;;;27.67;8.60;;;;;;;29.24;46.12;100772.94;4787781;29;20051;-38
2021/07/25 10:59:40;;;;;;;12.80;9.07;;;;;;;29.30;46.24;100769.13;4791168;29;20142;-38
2021/07/25 11:02:32;;;;;;;15.48;8.95;;;;;;;28.98;45.86;100768.34;4784749;29;20094;-38
2021/07/25 11:04:59;;;;;;;12.63;8.93;;;;;;;28.52;46.96;100762.94;4794419;29;20046;-38
2021/07/25 11:07:25;;;;;;;12.38;8.25;;;;;;;28.37;47.45;100765.56;4789247;29;20062;-38
2021/07/25 11:10:11;;;;;;;13.88;7.25;;;;;;;28.41;47.56;100766.66;4791911;29;20833;-37
2021/07/25 11:12:56;;;;;;;12.70;7.05;;;;;;;28.52;47.09;100767.50;4782417;29;20055;-38
2021/07/25 11:15:32;;;;;;;12.73;8.15;;;;;;;28.65;48.25;100761.56;4790712;29;20104;-38
2021/07/25 11:18:01;;;;;;;14.20;8.43;;;;;;;28.39;47.23;100755.31;4784551;29;20136;-38
2021/07/25 11:23:22;;;;;;;14.50;8.10;;;;;;;28.18;47.91;100752.56;4791809;29;20297;-40
2021/07/25 11:25:50;;;;;;;14.50;7.50;;;;;;;28.07;48.16;100753.63;4802322;29;20144;-39
2021/07/25 11:28:42;;;;;;;12.35;7.80;;;;;;;28.00;49.24;100756.56;4799176;29;20474;-39